Time;durP1;ratioP1;P1;durP2;ratioP2;P2;SDS_P1;SDS_P2;PMS_P1;PMS_P2;Temp;Humidity;BMP_temperature;BMP_pressure;BME280_temperature;BME280_humidity;BME280_pressure;Samples;Min_cycle;Max_cycle;Signal;HPM_P1;HPM_P2
2021/03/27 00:00:43;;;;;;;18.35;16.80;;;;;;;;;;5023248;28;20495;-43
2021/03/27 00:03:09;;;;;;;15.82;14.48;;;;;;;;;;5025614;28;20042;-42
2021/03/27 00:05:43;;;;;;;15.55;13.93;;;;;;;;;;5027869;28;20382;-42
2021/03/27 00:08:17;;;;;;;19.38;17.40;;;;;;;;;;5022586;28;20370;-42
2021/03/27 00:11:10;;;;;;;17.60;16.00;;;;;;;;;;5024810;28;20049;-41
2021/03/27 00:13:55;;;;;;;18.00;15.93;;;;;;;;;;5019724;28;20046;-42
2021/03/27 00:16:26;;;;;;;18.88;16.73;;;;;;;;;;5021809;28;20041;-42
2021/03/27 00:18:56;;;;;;;20.67;16.58;;;;;;;;;;5026242;28;20088;-44
2021/03/27 00:21:31;;;;;;;18.05;16.17;;;;;;;;;;5020331;28;20045;-42
2021/03/27 00:24:01;;;;;;;17.38;15.77;;;;;;;;;;5020353;28;20049;-46
2021/03/27 00:26:30;;;;;;;15.60;14.48;;;;;;;;;;5030075;28;20098;-42
2021/03/27 00:29:03;;;;;;;14.73;13.48;;;;;;;;;;5025218;28;20033;-44
2021/03/27 00:31:30;;;;;;;;;;;;;;;;;;5024650;28;20045;-42
2021/03/27 00:33:58;;;;;;;12.68;11.65;;;;;;;;;;5028579;28;20007;-44
2021/03/27 00:36:27;;;;;;;13.45;12.35;;;;;;;;;;5021960;28;20045;-42
2021/03/27 00:39:00;;;;;;;14.38;13.10;;;;;;;;;;5028406;28;20058;-45
2021/03/27 00:41:39;;;;;;;16.30;14.38;;;;;;;;;;5017364;28;20038;-43
2021/03/27 00:44:09;;;;;;;16.10;14.82;;;;;;;;;;5018509;28;20048;-44
2021/03/27 00:46:36;;;;;;;13.68;12.57;;;;;;;;;;5014483;28;20433;-43
2021/03/27 00:49:14;;;;;;;15.82;14.48;;;;;;;;;;5017308;28;20095;-42
2021/03/27 00:51:48;;;;;;;15.77;14.73;;;;;;;;;;5017405;28;20038;-41
2021/03/27 00:54:17;;;;;;;19.92;18.15;;;;;;;;;;5013990;28;20037;-41
2021/03/27 00:56:46;;;;;;;17.15;15.40;;;;;;;;;;5021586;28;20622;-44
2021/03/27 00:59:33;;;;;;;17.85;16.15;;;;;;;;;;5015110;28;20050;-42
2021/03/27 01:02:01;;;;;;;13.35;12.15;;;;;;;;;;5022040;28;20049;-45
2021/03/27 01:04:30;;;;;;;14.82;13.43;;;;;;;;;;5022629;28;20823;-43
2021/03/27 01:06:59;;;;;;;15.18;14.00;;;;;;;;;;5029708;28;20037;-42
2021/03/27 01:09:30;;;;;;;15.88;14.68;;;;;;;;;;5023399;28;20042;-42
2021/03/27 01:12:17;;;;;;;16.92;15.38;;;;;;;;;;5025882;28;20037;-42
2021/03/27 01:14:45;;;;;;;18.42;16.25;;;;;;;;;;5028916;28;20797;-44
2021/03/27 01:17:22;;;;;;;15.90;14.32;;;;;;;;;;5024983;28;20095;-41
2021/03/27 01:19:51;;;;;;;12.02;11.35;;;;;;;;;;5021506;28;20128;-41
2021/03/27 01:22:18;;;;;;;11.82;11.02;;;;;;;;;;5023994;28;20045;-42
2021/03/27 01:24:45;;;;;;;10.55;9.85;;;;;;;;;;5022593;28;20042;-43
2021/03/27 01:27:20;;;;;;;13.00;12.23;;;;;;;;;;5028927;28;20771;-42
2021/03/27 01:30:00;;;;;;;12.27;11.38;;;;;;;;;;5024802;28;20045;-42
2021/03/27 01:32:38;;;;;;;13.60;12.77;;;;;;;;;;5022222;28;20054;-42
2021/03/27 01:35:07;;;;;;;13.95;13.02;;;;;;;;;;5015775;28;20034;-42
2021/03/27 01:38:00;;;;;;;12.73;11.93;;;;;;;;;;5023026;28;20048;-42
2021/03/27 01:40:56;;;;;;;12.65;11.85;;;;;;;;;;5021865;28;20137;-41
2021/03/27 01:43:26;;;;;;;11.13;10.43;;;;;;;;;;5026358;28;20070;-41
2021/03/27 01:45:59;;;;;;;13.77;12.73;;;;;;;;;;5025617;28;20107;-42
2021/03/27 01:48:39;;;;;;;13.48;12.32;;;;;;;;;;5024783;28;20044;-41
2021/03/27 01:51:09;;;;;;;14.43;13.40;;;;;;;;;;5024913;28;20141;-42
2021/03/27 01:53:41;;;;;;;15.05;13.85;;;;;;;;;;5026168;28;20029;-45
2021/03/27 01:56:16;;;;;;;14.70;13.77;;;;;;;;;;5026826;28;20579;-42
2021/03/27 01:59:01;;;;;;;14.95;13.77;;;;;;;;;;5031750;28;20034;-42
2021/03/27 02:01:49;;;;;;;16.92;14.98;;;;;;;;;;5027588;28;20041;-42
2021/03/27 02:04:16;;;;;;;19.05;17.63;;;;;;;;;;5028640;28;20044;-43
2021/03/27 02:06:42;;;;;;;24.98;23.17;;;;;;;;;;5024190;28;20104;-42
2021/03/27 02:09:08;;;;;;;24.55;23.15;;;;;;;;;;5021727;28;20351;-42
2021/03/27 02:11:50;;;;;;;25.33;23.73;;;;;;;;;;5016005;28;20133;-41
2021/03/27 02:14:39;;;;;;;25.77;24.00;;;;;;;;;;5029394;28;20042;-43
2021/03/27 02:17:05;;;;;;;25.85;24.55;;;;;;;;;;5023766;28;20025;-42
2021/03/27 02:19:44;;;;;;;27.65;25.95;;;;;;;;;;5020524;28;20041;-43
2021/03/27 02:22:29;;;;;;;28.52;26.80;;;;;;;;;;5020910;28;20155;-42
2021/03/27 02:25:08;;;;;;;27.05;25.50;;;;;;;;;;5023624;28;20045;-42
2021/03/27 02:27:42;;;;;;;29.00;27.40;;;;;;;;;;5016384;28;20492;-42
2021/03/27 02:30:11;;;;;;;26.77;25.38;;;;;;;;;;5018109;28;20052;-43
2021/03/27 02:32:56;;;;;;;29.08;27.55;;;;;;;;;;5019509;28;20156;-42
2021/03/27 02:35:42;;;;;;;27.90;26.02;;;;;;;;;;5028715;28;20049;-41
2021/03/27 02:38:20;;;;;;;23.48;21.88;;;;;;;;;;5025982;28;20355;-43
2021/03/27 02:41:16;;;;;;;28.40;26.65;;;;;;;;;;5026039;28;20041;-42
2021/03/27 02:43:46;;;;;;;26.20;24.42;;;;;;;;;;5046977;28;20448;-42
2021/03/27 02:46:15;;;;;;;25.80;24.25;;;;;;;;;;5036187;28;20033;-42
2021/03/27 02:48:44;;;;;;;13.82;12.98;;;;;;;;;;5021586;28;20500;-44
2021/03/27 02:51:11;;;;;;;16.55;15.32;;;;;;;;;;5022143;28;20557;-42
2021/03/27 02:53:37;;;;;;;16.75;15.50;;;;;;;;;;5024974;28;20053;-43
2021/03/27 02:56:09;;;;;;;20.52;19.00;;;;;;;;;;5029240;28;20045;-42
2021/03/27 02:59:02;;;;;;;24.30;22.65;;;;;;;;;;5021403;28;20654;-41
2021/03/27 03:01:34;;;;;;;24.15;22.27;;;;;;;;;;5021176;28;20071;-44
2021/03/27 03:04:05;;;;;;;29.20;27.30;;;;;;;;;;5016979;28;20042;-41
2021/03/27 03:06:40;;;;;;;27.20;25.63;;;;;;;;;;5019613;28;20041;-42
2021/03/27 03:09:11;;;;;;;25.50;24.10;;;;;;;;;;5025504;28;20045;-43
2021/03/27 03:11:40;;;;;;;28.60;26.83;;;;;;;;;;5031310;28;20045;-41
2021/03/27 03:14:07;;;;;;;26.90;25.52;;;;;;;;;;5025046;28;20108;-41
2021/03/27 03:16:48;;;;;;;28.10;26.17;;;;;;;;;;5016574;28;20045;-42
2021/03/27 03:19:14;;;;;;;26.98;25.45;;;;;;;;;;5030231;28;20759;-42
2021/03/27 03:21:52;;;;;;;26.75;25.35;;;;;;;;;;5023089;28;20466;-42
2021/03/27 03:24:18;;;;;;;27.90;26.10;;;;;;;;;;5029086;28;20132;-41
2021/03/27 03:27:03;;;;;;;23.85;22.17;;;;;;;;;;5027963;28;20045;-43
2021/03/27 03:29:44;;;;;;;26.35;24.90;;;;;;;;;;5023243;28;20045;-43
2021/03/27 03:32:18;;;;;;;28.42;26.92;;;;;;;;;;5016725;28;20045;-41
2021/03/27 03:35:03;;;;;;;29.67;28.20;;;;;;;;;;5026150;28;20120;-41
2021/03/27 03:37:47;;;;;;;32.15;30.33;;;;;;;;;;5019479;28;20041;-43
2021/03/27 03:40:25;;;;;;;30.98;29.15;;;;;;;;;;5017587;28;20048;-44
2021/03/27 03:43:09;;;;;;;30.42;28.38;;;;;;;;;;5018475;28;20080;-41
2021/03/27 03:45:38;;;;;;;34.10;32.05;;;;;;;;;;5023138;28;20138;-41
2021/03/27 03:48:29;;;;;;;31.48;29.80;;;;;;;;;;5024020;28;20045;-44
2021/03/27 03:50:57;;;;;;;31.35;29.02;;;;;;;;;;5026514;28;20120;-42
2021/03/27 03:53:32;;;;;;;30.42;28.92;;;;;;;;;;5034063;28;20498;-42
2021/03/27 03:56:02;;;;;;;30.05;28.33;;;;;;;;;;5030156;28;20045;-46
2021/03/27 03:58:34;;;;;;;29.70;28.00;;;;;;;;;;5025987;28;20080;-41
2021/03/27 04:01:09;;;;;;;26.60;25.30;;;;;;;;;;5024219;28;20042;-43
2021/03/27 04:03:56;;;;;;;21.80;20.67;;;;;;;;;;5030304;28;20067;-42
2021/03/27 04:06:24;;;;;;;25.15;23.58;;;;;;;;;;5024063;28;20452;-44
2021/03/27 04:09:07;;;;;;;23.45;22.17;;;;;;;;;;5026724;28;20046;-42
2021/03/27 04:11:40;;;;;;;16.45;15.68;;;;;;;;;;5026324;28;20049;-42
2021/03/27 04:14:24;;;;;;;19.10;17.83;;;;;;;;;;5024013;28;20448;-42
2021/03/27 04:16:53;;;;;;;23.67;22.05;;;;;;;;;;5027459;28;20045;-42
2021/03/27 04:19:22;;;;;;;17.42;16.10;;;;;;;;;;5025889;28;20044;-42
2021/03/27 04:21:54;;;;;;;22.05;20.48;;;;;;;;;;5022269;28;20044;-41
2021/03/27 04:24:26;;;;;;;25.27;23.85;;;;;;;;;;5015172;28;20455;-43
2021/03/27 04:26:55;;;;;;;24.85;23.52;;;;;;;;;;5022778;28;20513;-42
2021/03/27 04:29:21;;;;;;;24.98;23.63;;;;;;;;;;5025954;28;20037;-43
2021/03/27 04:31:48;;;;;;;26.92;25.30;;;;;;;;;;5027614;28;20042;-42
2021/03/27 04:34:30;;;;;;;28.13;26.60;;;;;;;;;;5023327;28;20080;-42
2021/03/27 04:36:56;;;;;;;24.70;23.45;;;;;;;;;;5025077;28;20039;-42
2021/03/27 04:39:27;;;;;;;25.90;24.33;;;;;;;;;;5026126;28;20091;-43
2021/03/27 04:42:15;;;;;;;20.17;18.98;;;;;;;;;;5018225;28;20046;-42
2021/03/27 04:44:51;;;;;;;14.75;13.95;;;;;;;;;;5014335;28;20140;-42
2021/03/27 04:47:33;;;;;;;14.43;13.82;;;;;;;;;;5025056;28;20505;-43
2021/03/27 04:50:08;;;;;;;15.00;13.95;;;;;;;;;;5022450;28;20046;-43
2021/03/27 04:52:41;;;;;;;10.85;10.23;;;;;;;;;;5028872;28;20468;-42
2021/03/27 04:55:14;;;;;;;12.85;11.88;;;;;;;;;;5024058;28;20051;-41
2021/03/27 04:57:50;;;;;;;10.95;10.45;;;;;;;;;;5025782;28;20482;-43
2021/03/27 05:00:24;;;;;;;10.88;10.27;;;;;;;;;;5028117;28;20045;-41
2021/03/27 05:03:14;;;;;;;14.40;13.73;;;;;;;;;;5023041;28;20398;-42
2021/03/27 05:05:59;;;;;;;12.55;11.95;;;;;;;;;;5025608;28;20450;-44
2021/03/27 05:08:38;;;;;;;11.15;10.40;;;;;;;;;;5018251;28;20069;-42
2021/03/27 05:11:05;;;;;;;10.07;9.27;;;;;;;;;;5021970;28;20522;-43
2021/03/27 05:13:38;;;;;;;10.80;9.88;;;;;;;;;;5026335;28;20124;-41
2021/03/27 05:16:10;;;;;;;9.80;9.07;;;;;;;;;;5025461;28;20103;-41
2021/03/27 05:18:40;;;;;;;11.40;10.80;;;;;;;;;;5021896;28;20046;-43
2021/03/27 05:21:50;;;;;;;15.38;14.52;;;;;;;;;;5021446;28;20046;-42
2021/03/27 05:24:25;;;;;;;21.38;20.20;;;;;;;;;;5030910;28;20041;-42
2021/03/27 05:26:58;;;;;;;20.20;19.30;;;;;;;;;;5025392;28;20050;-43
2021/03/27 05:29:38;;;;;;;13.32;12.70;;;;;;;;;;5029444;28;20030;-42
2021/03/27 05:32:24;;;;;;;9.88;9.38;;;;;;;;;;5019146;28;20097;-44
2021/03/27 05:34:52;;;;;;;10.48;9.73;;;;;;;;;;5025416;28;20476;-43
2021/03/27 05:37:18;;;;;;;14.80;13.90;;;;;;;;;;5031346;28;20037;-43
2021/03/27 05:39:50;;;;;;;15.82;15.27;;;;;;;;;;5029257;28;20701;-42
2021/03/27 05:42:35;;;;;;;18.23;17.33;;;;;;;;;;5026567;28;20061;-43
2021/03/27 05:45:19;;;;;;;14.30;13.65;;;;;;;;;;5032859;28;20054;-43
2021/03/27 05:48:04;;;;;;;19.20;18.25;;;;;;;;;;5027216;28;20529;-42
2021/03/27 05:50:30;;;;;;;17.05;16.25;;;;;;;;;;5027035;28;20065;-45
2021/03/27 05:52:59;;;;;;;20.02;19.25;;;;;;;;;;5032407;28;20033;-43
2021/03/27 05:55:35;;;;;;;17.02;16.33;;;;;;;;;;5020159;28;20041;-42
2021/03/27 05:58:01;;;;;;;17.75;16.95;;;;;;;;;;5027651;28;20606;-42
2021/03/27 06:00:27;;;;;;;20.45;19.52;;;;;;;;;;5020777;28;20080;-43
2021/03/27 06:03:15;;;;;;;23.90;22.40;;;;;;;;;;5024151;28;20029;-42
2021/03/27 06:05:54;;;;;;;29.40;27.30;;;;;;;;;;5029509;28;20034;-41
2021/03/27 06:08:33;;;;;;;35.88;32.78;;;;;;;;;;5028347;28;20049;-43
2021/03/27 06:11:14;;;;;;;27.15;25.30;;;;;;;;;;5023396;28;20045;-42
2021/03/27 06:13:44;;;;;;;24.23;22.48;;;;;;;;;;5029983;28;20037;-41
2021/03/27 06:16:22;;;;;;;27.23;25.98;;;;;;;;;;5029614;28;20120;-41
2021/03/27 06:18:53;;;;;;;26.27;25.13;;;;;;;;;;5023757;28;20030;-41
2021/03/27 06:21:37;;;;;;;25.50;24.33;;;;;;;;;;5028894;28;20677;-41
2021/03/27 06:24:04;;;;;;;19.85;18.85;;;;;;;;;;5025900;28;20168;-43
2021/03/27 06:26:30;;;;;;;12.65;12.20;;;;;;;;;;5027330;28;20125;-42
2021/03/27 06:29:15;;;;;;;16.67;15.77;;;;;;;;;;5028755;28;20537;-43
2021/03/27 06:31:44;;;;;;;10.73;10.10;;;;;;;;;;5023293;28;20041;-43
2021/03/27 06:34:23;;;;;;;9.35;8.95;;;;;;;;;;5029336;28;20397;-45
2021/03/27 06:36:55;;;;;;;11.05;10.13;;;;;;;;;;5028902;28;20048;-41
2021/03/27 06:39:25;;;;;;;8.13;7.82;;;;;;;;;;5025282;28;20033;-43
2021/03/27 06:41:54;;;;;;;7.95;7.47;;;;;;;;;;5027200;28;20378;-42
2021/03/27 06:44:47;;;;;;;8.70;7.85;;;;;;;;;;5024527;28;20466;-42
2021/03/27 06:47:32;;;;;;;7.60;7.40;;;;;;;;;;5020885;28;20038;-42
2021/03/27 06:50:04;;;;;;;7.00;6.75;;;;;;;;;;5017525;28;20045;-41
2021/03/27 06:52:34;;;;;;;8.32;7.93;;;;;;;;;;5027171;28;20103;-42
2021/03/27 06:55:16;;;;;;;9.88;9.18;;;;;;;;;;5027174;28;20476;-43
2021/03/27 06:58:08;;;;;;;8.45;7.93;;;;;;;;;;5015425;28;20034;-42
2021/03/27 07:00:53;;;;;;;8.30;7.60;;;;;;;;;;5027865;28;20512;-41
2021/03/27 07:03:26;;;;;;;8.82;8.07;;;;;;;;;;5022540;28;20062;-42
2021/03/27 07:06:11;;;;;;;11.35;10.25;;;;;;;;;;5030671;28;20052;-41
2021/03/27 07:08:52;;;;;;;11.95;10.70;;;;;;;;;;5027390;28;20136;-41
2021/03/27 07:11:34;;;;;;;11.35;10.35;;;;;;;;;;5024563;28;20465;-44
2021/03/27 07:14:03;;;;;;;11.35;10.45;;;;;;;;;;5030685;28;20041;-43
2021/03/27 07:16:48;;;;;;;11.05;10.43;;;;;;;;;;5024649;28;20385;-40
2021/03/27 07:19:15;;;;;;;9.43;8.90;;;;;;;;;;5026007;28;20466;-40
2021/03/27 07:21:47;;;;;;;12.05;11.05;;;;;;;;;;5014334;28;20038;-41
2021/03/27 07:24:25;;;;;;;10.52;9.93;;;;;;;;;;5025236;28;20069;-42
2021/03/27 07:27:04;;;;;;;9.80;9.18;;;;;;;;;;5026611;28;20360;-40
2021/03/27 07:29:50;;;;;;;10.88;9.27;;;;;;;;;;5030698;28;20095;-41
2021/03/27 07:32:26;;;;;;;10.57;9.93;;;;;;;;;;5023507;28;20461;-43
2021/03/27 07:35:11;;;;;;;10.98;10.23;;;;;;;;;;5026804;28;20033;-40
2021/03/27 07:37:56;;;;;;;10.63;9.90;;;;;;;;;;5030225;28;20037;-42
2021/03/27 07:40:28;;;;;;;9.93;9.25;;;;;;;;;;5024714;28;20046;-40
2021/03/27 07:42:54;;;;;;;11.02;10.07;;;;;;;;;;5027671;28;20037;-41
2021/03/27 07:45:36;;;;;;;11.80;10.63;;;;;;;;;;5028701;28;20077;-42
2021/03/27 07:48:20;;;;;;;12.25;11.05;;;;;;;;;;5025148;28;20116;-39
2021/03/27 07:51:07;;;;;;;12.38;11.32;;;;;;;;;;5027810;28;20049;-40
2021/03/27 07:53:42;;;;;;;15.13;11.75;;;;;;;;;;5030140;28;20077;-39
2021/03/27 07:56:34;;;;;;;15.60;12.57;;;;;;;;;;5024389;28;20044;-39
2021/03/27 07:59:04;;;;;;;21.70;15.45;;;;;;;;;;5027385;28;20036;-40
2021/03/27 08:01:30;;;;;;;18.10;13.35;;;;;;;;;;5027331;28;20038;-40
2021/03/27 08:03:59;;;;;;;15.68;13.82;;;;;;;;;;5024898;28;20040;-40
2021/03/27 08:07:04;;;;;;;22.70;17.05;;;;;;;;;;5028631;28;20427;-40
2021/03/27 08:09:48;;;;;;;22.25;17.55;;;;;;;;;;5006766;28;20162;-40
2021/03/27 08:12:29;;;;;;;14.10;13.10;;;;;;;;;;4999838;28;20100;-41
2021/03/27 08:14:56;;;;;;;12.95;11.65;;;;;;;;;;5004997;28;20089;-39
2021/03/27 08:17:40;;;;;;;13.20;12.00;;;;;;;;;;5005988;28;20050;-40
2021/03/27 08:20:16;;;;;;;14.25;12.90;;;;;;;;;;5003255;28;20081;-41
2021/03/27 08:23:03;;;;;;;15.18;13.60;;;;;;;;;;5005948;28;20475;-40
2021/03/27 08:25:29;;;;;;;15.38;14.07;;;;;;;;;;5007089;28;20045;-40
2021/03/27 08:28:13;;;;;;;15.85;14.48;;;;;;;;;;5001761;28;20054;-40
2021/03/27 08:30:58;;;;;;;19.80;17.85;;;;;;;;;;5007343;28;20050;-40
2021/03/27 08:33:43;;;;;;;18.00;14.70;;;;;;;;;;5007488;28;20072;-39
2021/03/27 08:36:15;;;;;;;17.33;15.52;;;;;;;;;;5003164;28;20050;-40
2021/03/27 08:38:48;;;;;;;16.23;11.02;;;;;;;;;;5008327;28;20139;-40
2021/03/27 08:41:26;;;;;;;16.93;13.90;;;;;;;;;;5013333;28;20066;-42
2021/03/27 08:44:10;;;;;;;14.52;13.18;;;;;;;;;;5018398;28;20289;-40
2021/03/27 08:46:37;;;;;;;14.77;12.10;;;;;;;;;;5026135;28;20045;-40
2021/03/27 08:49:22;;;;;;;12.77;11.50;;;;;;;;;;5025691;28;20405;-41
2021/03/27 08:51:48;;;;;;;11.70;10.50;;;;;;;;;;5023342;28;20410;-40
2021/03/27 08:54:15;;;;;;;10.10;9.20;;;;;;;;;;5026477;28;20052;-40
2021/03/27 08:56:59;;;;;;;12.15;9.38;;;;;;;;;;5026368;28;20481;-40
2021/03/27 08:59:44;;;;;;;10.25;9.25;;;;;;;;;;5030675;28;20038;-41
2021/03/27 09:02:16;;;;;;;8.48;7.75;;;;;;;;;;5031936;28;20038;-40
2021/03/27 09:04:48;;;;;;;8.82;7.65;;;;;;;;;;5024281;28;20125;-40
2021/03/27 09:07:33;;;;;;;7.55;7.13;;;;;;;;;;5017271;28;20092;-41
2021/03/27 09:10:18;;;;;;;9.35;6.70;;;;;;;;;;5031477;28;20033;-40
2021/03/27 09:12:48;;;;;;;7.20;6.63;;;;;;;;;;5027214;28;20035;-39
2021/03/27 09:15:33;;;;;;;6.20;5.90;;;;;;;;;;5030978;28;20042;-40
2021/03/27 09:18:08;;;;;;;5.40;4.93;;;;;;;;;;5030797;28;20033;-40
2021/03/27 09:20:42;;;;;;;4.75;4.45;;;;;;;;;;5022852;28;20128;-40
2021/03/27 09:23:09;;;;;;;6.90;5.97;;;;;;;;;;5016965;28;20474;-40
2021/03/27 09:25:53;;;;;;;5.78;4.75;;;;;;;;;;5029180;28;20037;-40
2021/03/27 09:28:52;;;;;;;5.38;4.85;;;;;;;;;;5027624;28;20059;-40
2021/03/27 09:31:37;;;;;;;5.82;5.30;;;;;;;;;;5014728;28;20077;-41
2021/03/27 09:34:21;;;;;;;7.95;4.93;;;;;;;;;;5017390;28;20042;-40
2021/03/27 09:36:54;;;;;;;6.47;5.00;;;;;;;;;;5024738;28;20493;-40
2021/03/27 09:39:35;;;;;;;7.90;4.93;;;;;;;;;;5031535;28;20041;-40
2021/03/27 09:42:08;;;;;;;7.47;5.38;;;;;;;;;;5030163;28;20460;-41
2021/03/27 09:44:46;;;;;;;6.50;4.28;;;;;;;;;;5027811;28;20079;-41
2021/03/27 09:47:18;;;;;;;5.18;4.72;;;;;;;;;;5016598;28;20041;-41
2021/03/27 09:50:02;;;;;;;5.50;5.10;;;;;;;;;;5027842;28;20037;-41
2021/03/27 09:52:29;;;;;;;10.98;4.90;;;;;;;;;;5027483;28;20040;-40
2021/03/27 09:55:05;;;;;;;4.40;4.07;;;;;;;;;;5016305;28;20124;-41
2021/03/27 09:57:38;;;;;;;5.22;4.72;;;;;;;;;;5025681;28;20128;-41
2021/03/27 10:00:07;;;;;;;17.00;7.10;;;;;;;;;;5029529;28;20042;-41
2021/03/27 10:02:39;;;;;;;5.00;4.43;;;;;;;;;;5027184;28;20612;-41
2021/03/27 10:05:24;;;;;;;6.00;5.50;;;;;;;;;;5025970;28;20025;-41
2021/03/27 10:08:07;;;;;;;5.40;4.60;;;;;;;;;;5030166;28;20389;-43
2021/03/27 10:10:33;;;;;;;5.68;4.22;;;;;;;;;;5030289;28;20583;-41
2021/03/27 10:13:02;;;;;;;6.28;2.70;;;;;;;;;;5024258;28;20385;-41
2021/03/27 10:15:31;;;;;;;8.00;5.35;;;;;;;;;;5031096;28;20060;-41
2021/03/27 10:18:21;;;;;;;4.60;3.58;;;;;;;;;;5027249;28;20044;-42
2021/03/27 10:20:50;;;;;;;3.30;3.10;;;;;;;;;;5025565;28;20065;-42
2021/03/27 10:23:35;;;;;;;3.17;3.08;;;;;;;;;;5033095;28;20490;-40
2021/03/27 10:26:17;;;;;;;3.58;3.28;;;;;;;;;;5027285;28;20037;-40
2021/03/27 10:28:50;;;;;;;4.20;2.17;;;;;;;;;;5025465;28;20042;-41
2021/03/27 10:31:18;;;;;;;4.53;2.50;;;;;;;;;;5032454;28;20482;-40
2021/03/27 10:33:57;;;;;;;5.38;3.70;;;;;;;;;;5021625;28;20041;-41
2021/03/27 10:36:33;;;;;;;3.70;2.47;;;;;;;;;;5017377;28;20045;-43
2021/03/27 10:39:15;;;;;;;4.60;2.40;;;;;;;;;;5032455;28;20429;-43
2021/03/27 10:42:07;;;;;;;3.17;2.92;;;;;;;;;;5027212;28;20062;-41
2021/03/27 10:44:38;;;;;;;3.75;2.47;;;;;;;;;;5024973;28;20477;-41
2021/03/27 10:47:11;;;;;;;2.10;1.98;;;;;;;;;;5031428;28;20043;-42
2021/03/27 10:49:41;;;;;;;2.40;2.30;;;;;;;;;;5026053;28;20042;-42
2021/03/27 10:52:26;;;;;;;6.82;2.10;;;;;;;;;;5027928;28;20113;-43
2021/03/27 10:55:11;;;;;;;2.47;2.05;;;;;;;;;;5030313;28;20442;-42
2021/03/27 10:57:40;;;;;;;4.68;1.75;;;;;;;;;;5024701;28;20038;-42
2021/03/27 11:00:17;;;;;;;3.28;1.88;;;;;;;;;;5028934;28;20421;-44
2021/03/27 11:02:49;;;;;;;1.70;1.60;;;;;;;;;;5025855;28;20141;-42
2021/03/27 11:05:25;;;;;;;2.05;1.67;;;;;;;;;;5022568;28;20080;-41
2021/03/27 11:08:11;;;;;;;1.90;1.70;;;;;;;;;;5031367;28;20030;-41
2021/03/27 11:10:42;;;;;;;2.28;1.80;;;;;;;;;;5026650;28;20077;-41
2021/03/27 11:13:17;;;;;;;3.15;1.85;;;;;;;;;;5024644;28;20055;-41
2021/03/27 11:15:56;;;;;;;4.78;1.80;;;;;;;;;;5029912;28;20037;-43
2021/03/27 11:18:40;;;;;;;1.27;1.17;;;;;;;;;;5021881;28;20041;-42
2021/03/27 11:21:24;;;;;;;1.58;1.48;;;;;;;;;;5026053;28;20044;-41
2021/03/27 11:24:29;;;;;;;1.40;1.30;;;;;;;;;;5027095;28;20136;-42
2021/03/27 11:26:55;;;;;;;3.88;2.05;;;;;;;;;;5027831;28;20046;-42
2021/03/27 11:29:40;;;;;;;2.08;1.80;;;;;;;;;;5027372;28;20416;-42
2021/03/27 11:32:15;;;;;;;2.15;1.20;;;;;;;;;;5021750;28;20069;-42
2021/03/27 11:34:41;;;;;;;1.35;1.33;;;;;;;;;;5025089;28;20124;-41
2021/03/27 11:37:13;;;;;;;3.10;1.33;;;;;;;;;;5023449;28;20478;-40
2021/03/27 11:39:48;;;;;;;2.72;1.70;;;;;;;;;;5025893;28;20034;-42
2021/03/27 11:42:33;;;;;;;1.70;1.30;;;;;;;;;;5021946;28;20497;-42
2021/03/27 11:45:04;;;;;;;1.50;1.20;;;;;;;;;;5023831;28;20136;-40
2021/03/27 11:47:49;;;;;;;1.20;1.02;;;;;;;;;;5016445;28;20041;-40
2021/03/27 11:50:21;;;;;;;2.05;1.10;;;;;;;;;;5020611;28;20527;-41
2021/03/27 11:53:03;;;;;;;2.45;1.30;;;;;;;;;;5030078;28;20355;-41
2021/03/27 11:55:31;;;;;;;1.05;1.00;;;;;;;;;;5024247;28;20397;-41
2021/03/27 11:58:02;;;;;;;0.93;0.90;;;;;;;;;;5021439;28;20040;-43
2021/03/27 12:01:01;;;;;;;1.58;1.40;;;;;;;;;;5012610;28;20562;-41
2021/03/27 12:03:31;;;;;;;3.00;1.00;;;;;;;;;;5025589;28;20040;-42
2021/03/27 12:06:12;;;;;;;1.58;0.90;;;;;;;;;;5026522;28;20398;-43
2021/03/27 12:08:43;;;;;;;1.05;0.90;;;;;;;;;;5029760;28;20651;-43
2021/03/27 12:11:09;;;;;;;1.90;1.08;;;;;;;;;;5021852;28;20124;-42
2021/03/27 12:14:02;;;;;;;0.98;0.90;;;;;;;;;;5021645;28;20104;-44
2021/03/27 12:16:35;;;;;;;2.38;1.10;;;;;;;;;;5028021;28;20049;-43
2021/03/27 12:19:19;;;;;;;1.10;1.00;;;;;;;;;;5023022;28;20037;-43
2021/03/27 12:22:06;;;;;;;1.70;0.93;;;;;;;;;;5027884;28;20052;-46
2021/03/27 12:24:58;;;;;;;1.90;1.17;;;;;;;;;;5027852;28;20478;-41
2021/03/27 12:27:38;;;;;;;1.35;1.17;;;;;;;;;;5008360;28;20046;-41
2021/03/27 12:30:21;;;;;;;1.08;1.08;;;;;;;;;;5023311;28;20045;-41
2021/03/27 12:32:56;;;;;;;1.23;1.10;;;;;;;;;;5028977;28;20086;-45
2021/03/27 12:35:38;;;;;;;3.15;0.90;;;;;;;;;;5022775;28;20379;-45
2021/03/27 12:38:04;;;;;;;1.48;1.38;;;;;;;;;;5025380;28;20029;-46
2021/03/27 12:40:33;;;;;;;1.55;1.55;;;;;;;;;;5019504;28;20049;-46
2021/03/27 12:43:08;;;;;;;2.13;1.20;;;;;;;;;;5020432;28;20087;-45
2021/03/27 12:45:36;;;;;;;1.92;0.90;;;;;;;;;;5029795;28;20124;-46
2021/03/27 12:48:29;;;;;;;2.60;1.30;;;;;;;;;;5016019;28;20475;-43
2021/03/27 12:51:06;;;;;;;4.07;1.50;;;;;;;;;;5023110;28;20465;-46
2021/03/27 12:53:51;;;;;;;2.38;1.30;;;;;;;;;;5029562;28;20045;-47
2021/03/27 12:56:26;;;;;;;1.00;1.00;;;;;;;;;;5019762;28;20037;-44
2021/03/27 12:59:12;;;;;;;2.05;1.00;;;;;;;;;;5023441;28;20052;-43
2021/03/27 13:01:45;;;;;;;2.75;1.45;;;;;;;;;;5022600;28;20060;-44
2021/03/27 13:04:14;;;;;;;4.78;1.00;;;;;;;;;;5023803;28;20041;-42
2021/03/27 13:06:45;;;;;;;1.33;0.90;;;;;;;;;;5022415;28;20389;-43
2021/03/27 13:09:12;;;;;;;4.07;1.05;;;;;;;;;;5029581;28;20072;-45
2021/03/27 13:11:48;;;;;;;1.13;0.85;;;;;;;;;;5023732;28;20053;-44
2021/03/27 13:14:20;;;;;;;0.80;0.80;;;;;;;;;;5022108;28;20486;-43
2021/03/27 13:16:47;;;;;;;1.15;0.85;;;;;;;;;;5024567;28;20049;-46
2021/03/27 13:19:17;;;;;;;2.65;0.90;;;;;;;;;;5018290;28;20478;-44
2021/03/27 13:21:51;;;;;;;0.90;0.90;;;;;;;;;;5023017;28;20601;-43
2021/03/27 13:24:46;;;;;;;0.80;0.80;;;;;;;;;;5024811;28;20049;-43
2021/03/27 13:27:22;;;;;;;1.52;0.80;;;;;;;;;;5021491;28;20371;-43
2021/03/27 13:29:50;;;;;;;1.00;1.00;;;;;;;;;;5018256;28;20434;-43
2021/03/27 13:32:16;;;;;;;2.28;0.85;;;;;;;;;;5021972;28;20528;-42
2021/03/27 13:34:51;;;;;;;1.33;1.23;;;;;;;;;;5015875;28;20084;-43
2021/03/27 13:37:23;;;;;;;1.77;1.00;;;;;;;;;;5027962;28;20041;-43
2021/03/27 13:39:53;;;;;;;0.90;0.90;;;;;;;;;;5021914;28;20045;-44
2021/03/27 13:42:19;;;;;;;2.13;0.90;;;;;;;;;;5019747;28;20128;-43
2021/03/27 13:44:51;;;;;;;0.90;0.90;;;;;;;;;;5029452;28;20079;-42
2021/03/27 13:47:38;;;;;;;2.72;0.95;;;;;;;;;;5026224;28;20030;-43
2021/03/27 13:50:23;;;;;;;1.77;1.10;;;;;;;;;;5030648;28;20037;-44
2021/03/27 13:53:05;;;;;;;2.53;1.40;;;;;;;;;;5028489;28;20045;-43
2021/03/27 13:55:39;;;;;;;1.52;1.40;;;;;;;;;;5022366;28;20038;-43
2021/03/27 13:58:18;;;;;;;2.33;1.50;;;;;;;;;;5030957;28;20091;-42
2021/03/27 14:01:11;;;;;;;1.27;1.17;;;;;;;;;;5026396;28;20109;-42
2021/03/27 14:03:47;;;;;;;3.35;1.50;;;;;;;;;;5022965;28;20033;-44
2021/03/27 14:06:13;;;;;;;1.20;1.10;;;;;;;;;;5017183;28;20040;-43
2021/03/27 14:08:43;;;;;;;1.25;0.90;;;;;;;;;;5026440;28;20453;-44
2021/03/27 14:11:10;;;;;;;1.40;1.40;;;;;;;;;;5023273;28;20049;-42
2021/03/27 14:13:41;;;;;;;1.08;1.00;;;;;;;;;;5026677;28;20135;-42
2021/03/27 14:16:20;;;;;;;1.20;1.10;;;;;;;;;;5025832;28;20049;-43
2021/03/27 14:19:10;;;;;;;2.35;1.20;;;;;;;;;;5027976;28;20080;-41
2021/03/27 14:21:51;;;;;;;1.80;1.00;;;;;;;;;;5011614;28;20057;-42
2021/03/27 14:24:36;;;;;;;1.30;1.20;;;;;;;;;;5021252;28;20053;-42
2021/03/27 14:27:21;;;;;;;1.02;1.02;;;;;;;;;;5019155;28;20052;-41
2021/03/27 14:30:00;;;;;;;1.00;1.00;;;;;;;;;;5030290;28;20041;-41
2021/03/27 14:32:35;;;;;;;1.40;1.30;;;;;;;;;;5023404;28;20069;-43
2021/03/27 14:35:15;;;;;;;2.17;1.35;;;;;;;;;;5018078;28;20040;-41
2021/03/27 14:37:42;;;;;;;3.58;2.83;;;;;;;;;;5031552;28;20470;-42
2021/03/27 14:40:27;;;;;;;5.45;1.67;;;;;;;;;;5021252;28;20383;-41
2021/03/27 14:43:09;;;;;;;1.60;1.17;;;;;;;;;;5016757;28;20159;-43
2021/03/27 14:45:53;;;;;;;2.13;0.80;;;;;;;;;;5026794;28;20060;-45
2021/03/27 14:48:23;;;;;;;1.27;1.17;;;;;;;;;;5023603;28;20477;-41
2021/03/27 14:50:57;;;;;;;5.25;1.17;;;;;;;;;;5029366;28;20478;-45
2021/03/27 14:53:40;;;;;;;1.65;0.90;;;;;;;;;;5015967;28;20045;-42
2021/03/27 14:56:17;;;;;;;3.17;1.08;;;;;;;;;;5021747;28;20449;-46
2021/03/27 14:59:04;;;;;;;7.18;5.43;;;;;;;;;;5031215;28;20034;-43
2021/03/27 15:01:36;;;;;;;3.83;1.25;;;;;;;;;;5019875;28;20565;-41
2021/03/27 15:04:21;;;;;;;1.13;1.02;;;;;;;;;;5024893;28;20040;-43
2021/03/27 15:06:50;;;;;;;1.20;1.20;;;;;;;;;;5030716;28;20049;-43
2021/03/27 15:09:35;;;;;;;1.17;1.17;;;;;;;;;;5026855;28;20409;-42
2021/03/27 15:12:01;;;;;;;0.90;0.90;;;;;;;;;;5024871;28;20042;-45
2021/03/27 15:14:28;;;;;;;1.75;1.20;;;;;;;;;;5031872;28;20358;-42
2021/03/27 15:17:00;;;;;;;0.90;0.90;;;;;;;;;;5024848;28;20037;-42
2021/03/27 15:19:53;;;;;;;3.33;1.10;;;;;;;;;;5018397;28;20038;-42
2021/03/27 15:22:26;;;;;;;1.00;1.00;;;;;;;;;;5029927;28;20134;-43